createdAt,value
2019-04-23T00:01:49.239Z,37.90
2019-04-23T00:04:23.969Z,37.70
2019-04-23T00:07:15.808Z,37.20
2019-04-23T00:09:33.090Z,37.00
2019-04-23T00:12:12.662Z,34.30
2019-04-23T00:14:52.045Z,32.70
2019-04-23T00:17:17.800Z,31.90
2019-04-23T00:19:47.176Z,30.20
2019-04-23T00:22:43.516Z,28.40
2019-04-23T00:25:44.952Z,27.10
2019-04-23T00:28:10.069Z,26.50
2019-04-23T00:30:44.327Z,26.30
2019-04-23T00:33:12.070Z,25.40
2019-04-23T00:35:44.089Z,26.00
2019-04-23T00:38:18.501Z,26.10
2019-04-23T00:40:54.317Z,25.90
2019-04-23T00:43:27.244Z,25.20
2019-04-23T00:45:57.190Z,24.80
2019-04-23T00:48:36.495Z,24.60
2019-04-23T00:51:02.260Z,24.70
2019-04-23T00:53:37.146Z,24.40
2019-04-23T00:56:32.420Z,23.60
2019-04-23T00:58:49.517Z,24.10
2019-04-23T01:01:31.964Z,23.90
2019-04-23T01:04:01.949Z,24.10
2019-04-23T01:06:32.117Z,23.90
2019-04-23T01:09:02.611Z,23.10
2019-04-23T01:11:43.594Z,22.80
2019-04-23T01:14:14.833Z,23.00
2019-04-23T01:16:45.428Z,22.60
2019-04-23T01:19:39.419Z,22.60
2019-04-23T01:22:00.137Z,22.10
2019-04-23T01:24:50.808Z,22.20
2019-04-23T01:28:02.489Z,21.70
2019-04-23T01:30:22.202Z,21.30
2019-04-23T01:32:59.408Z,21.40
2019-04-23T01:36:03.072Z,21.20
2019-04-23T01:38:07.139Z,21.20
2019-04-23T01:40:40.628Z,21.30
2019-04-23T01:43:19.657Z,21.20
2019-04-23T01:45:42.082Z,21.20
2019-04-23T01:48:26.151Z,20.90
2019-04-23T01:50:56.151Z,21.10
2019-04-23T01:53:37.040Z,21.10
2019-04-23T01:56:04.904Z,20.90
2019-04-23T02:01:19.137Z,20.00
2019-04-23T02:03:54.391Z,20.00
2019-04-23T02:06:25.111Z,20.00
2019-04-23T02:09:00.397Z,20.20
2019-04-23T02:11:33.898Z,20.30
2019-04-23T02:14:21.348Z,19.90
2019-04-23T02:19:18.214Z,19.80
2019-04-23T02:21:59.878Z,19.80
2019-04-23T02:24:39.731Z,19.40
2019-04-23T02:27:08.010Z,19.20
2019-04-23T02:29:51.365Z,19.20
2019-04-23T02:32:09.325Z,19.00
2019-04-23T02:35:02.322Z,19.10
2019-04-23T02:37:40.789Z,18.90
2019-04-23T02:47:48.595Z,18.70
2019-04-23T02:52:48.917Z,18.60
2019-04-23T02:55:27.138Z,18.50
2019-04-23T03:03:06.208Z,18.20
2019-04-23T03:05:59.225Z,18.10
2019-04-23T03:10:59.957Z,18.10
2019-04-23T03:13:35.028Z,18.10
2019-04-23T03:16:21.085Z,17.90
2019-04-23T03:19:02.242Z,17.90
2019-04-23T03:24:25.174Z,17.80
2019-04-23T03:27:07.418Z,17.70
2019-04-23T03:39:56.549Z,17.60
2019-04-23T03:55:19.058Z,17.50
2019-04-23T03:58:05.217Z,17.40
2019-04-23T04:03:10.822Z,17.50
2019-04-23T04:05:42.074Z,17.30
2019-04-23T04:13:19.938Z,17.10
2019-04-23T04:15:58.884Z,16.90
2019-04-23T04:21:09.575Z,17.00
2019-04-23T04:23:42.790Z,16.90
2019-04-23T04:26:06.997Z,16.90
2019-04-23T04:28:45.913Z,16.80
2019-04-23T04:31:16.307Z,16.80
2019-04-23T04:38:54.855Z,16.60
2019-04-23T04:41:34.599Z,16.50
2019-04-23T04:44:17.596Z,16.40
2019-04-23T04:46:45.614Z,16.30
2019-04-23T04:49:12.434Z,16.20
2019-04-23T04:54:21.366Z,16.20
2019-04-23T04:59:55.547Z,16.20
2019-04-23T05:04:54.015Z,15.90
2019-04-23T05:07:25.291Z,16.00
2019-04-23T05:12:22.798Z,15.90
2019-04-23T05:14:58.758Z,15.80
2019-04-23T05:17:32.407Z,15.80
2019-04-23T05:20:04.535Z,15.70
2019-04-23T05:22:49.359Z,15.80
2019-04-23T05:25:05.484Z,15.60
2019-04-23T05:27:56.805Z,15.70
2019-04-23T05:30:29.794Z,15.60
2019-04-23T05:32:58.021Z,15.70
2019-04-23T05:40:49.934Z,15.40
2019-04-23T05:43:08.223Z,15.50
2019-04-23T05:45:42.964Z,15.50
2019-04-23T05:48:19.386Z,15.40
2019-04-23T05:50:59.074Z,15.40
2019-04-23T05:53:28.589Z,15.30
2019-04-23T05:56:04.240Z,15.20
2019-04-23T05:58:38.694Z,15.20
2019-04-23T06:01:49.856Z,15.10
2019-04-23T06:11:54.249Z,15.00
2019-04-23T06:14:18.937Z,14.90
2019-04-23T06:20:28.429Z,14.80
2019-04-23T06:23:05.694Z,14.70
2019-04-23T06:25:49.505Z,14.70
2019-04-23T06:30:48.961Z,14.60
2019-04-23T06:33:21.041Z,14.70
2019-04-23T06:35:50.366Z,14.70
2019-04-23T06:41:00.815Z,14.60
2019-04-23T06:43:42.295Z,14.50
2019-04-23T06:46:12.025Z,14.40
2019-04-23T06:48:45.461Z,14.30
2019-04-23T06:51:27.146Z,14.30
2019-04-23T06:53:51.278Z,14.30
2019-04-23T06:59:00.813Z,14.20
2019-04-23T07:01:40.391Z,14.30
2019-04-23T07:04:15.039Z,14.30
2019-04-23T07:06:46.830Z,14.30
2019-04-23T07:09:20.467Z,14.30
2019-04-23T07:11:47.861Z,14.20
2019-04-23T07:14:30.803Z,14.20
2019-04-23T07:16:58.408Z,14.20
2019-04-23T07:19:37.202Z,14.30
2019-04-23T07:22:14.683Z,14.30
2019-04-23T07:24:42.007Z,14.30
2019-04-23T07:27:13.489Z,14.10
2019-04-23T07:29:58.520Z,14.10
2019-04-23T07:32:29.110Z,14.10
2019-04-23T07:35:04.526Z,14.10
2019-04-23T07:37:57.083Z,14.00
2019-04-23T07:40:23.007Z,13.90
2019-04-23T07:42:51.196Z,14.00
2019-04-23T07:45:33.147Z,14.00
2019-04-23T07:56:02.239Z,13.80
2019-04-23T08:03:39.811Z,13.70
2019-04-23T08:11:33.224Z,13.80
2019-04-23T08:18:57.355Z,13.70
2019-04-23T08:21:32.022Z,13.70
2019-04-23T08:24:41.967Z,13.50
2019-04-23T08:26:55.194Z,13.60
2019-04-23T08:29:30.695Z,13.50
2019-04-23T08:32:15.924Z,13.50
2019-04-23T08:34:58.790Z,13.50
2019-04-23T08:39:52.563Z,13.50
2019-04-23T08:48:04.142Z,13.30
2019-04-23T08:50:32.211Z,13.30
2019-04-23T08:53:17.803Z,13.30
2019-04-23T08:55:44.256Z,13.20
2019-04-23T08:58:14.173Z,13.00
2019-04-23T09:00:51.976Z,13.10
2019-04-23T09:03:34.266Z,13.10
2019-04-23T09:05:57.398Z,12.90
2019-04-23T09:08:32.862Z,12.70
2019-04-23T09:11:16.396Z,12.70
2019-04-23T09:16:22.185Z,12.70
2019-04-23T09:18:45.958Z,12.70
2019-04-23T09:21:25.738Z,12.70
2019-04-23T09:26:25.933Z,12.60
2019-04-23T09:29:10.591Z,12.60
2019-04-23T09:34:16.612Z,12.50
2019-04-23T09:37:16.019Z,12.60
2019-04-23T09:39:42.802Z,12.60
2019-04-23T09:42:29.966Z,12.50
2019-04-23T09:47:59.677Z,12.60
2019-04-23T09:50:29.524Z,12.60
2019-04-23T09:53:13.096Z,12.50
2019-04-23T09:58:07.779Z,12.50
2019-04-23T10:00:48.856Z,12.50
2019-04-23T10:03:09.268Z,12.50
2019-04-23T10:05:39.128Z,12.50
2019-04-23T10:08:13.257Z,12.50
2019-04-23T10:10:36.535Z,12.50
2019-04-23T10:13:09.243Z,12.50
2019-04-23T10:15:44.556Z,12.40
2019-04-23T10:18:16.329Z,12.40
2019-04-23T10:20:48.811Z,12.40
2019-04-23T10:23:23.097Z,12.30
2019-04-23T10:25:58.156Z,12.30
2019-04-23T10:28:38.244Z,12.20
2019-04-23T10:31:12.487Z,12.20
2019-04-23T10:33:46.160Z,12.20
2019-04-23T10:36:23.163Z,12.20
2019-04-23T10:39:00.479Z,12.20
2019-04-23T10:41:28.034Z,12.20
2019-04-23T10:44:02.837Z,12.20
2019-04-23T10:47:02.798Z,12.10
2019-04-23T10:52:20.175Z,12.00
2019-04-23T10:54:52.427Z,12.10
2019-04-23T10:57:21.239Z,12.10
2019-04-23T10:59:53.941Z,12.00
2019-04-23T11:02:51.776Z,12.00
2019-04-23T11:05:35.640Z,12.00
2019-04-23T11:07:38.473Z,12.00
2019-04-23T11:13:10.654Z,12.00
2019-04-23T11:15:50.634Z,12.00
2019-04-23T11:17:58.329Z,12.00
2019-04-23T11:20:41.807Z,11.90
2019-04-23T11:23:04.928Z,11.90
2019-04-23T11:25:42.927Z,11.80
2019-04-23T11:30:54.844Z,11.80
2019-04-23T11:33:50.938Z,11.80
2019-04-23T11:36:35.773Z,11.70
2019-04-23T11:41:23.481Z,11.80
2019-04-23T11:43:49.055Z,11.70
2019-04-23T11:46:39.819Z,11.70
2019-04-23T11:54:10.288Z,11.60
2019-04-23T11:57:14.254Z,11.60
2019-04-23T11:59:29.626Z,11.50
2019-04-23T12:14:53.695Z,11.50
2019-04-23T12:17:41.140Z,11.50
2019-04-23T12:20:06.055Z,11.50
2019-04-23T12:22:35.428Z,11.50
2019-04-23T12:27:33.255Z,11.40
2019-04-23T12:32:59.448Z,11.50
2019-04-23T12:35:24.274Z,11.50
2019-04-23T12:38:04.163Z,11.40
2019-04-23T12:43:13.330Z,11.40
2019-04-23T12:45:43.869Z,11.30
2019-04-23T12:48:35.025Z,11.40
2019-04-23T12:51:24.385Z,11.40
2019-04-23T12:53:39.841Z,11.40
2019-04-23T12:56:08.792Z,11.30
2019-04-23T12:58:31.703Z,11.30
2019-04-23T13:01:13.947Z,11.30
2019-04-23T13:04:05.240Z,11.30
2019-04-23T13:06:20.411Z,11.30
2019-04-23T13:09:28.822Z,11.30
2019-04-23T13:14:07.185Z,11.20
2019-04-23T13:16:46.138Z,11.10
2019-04-23T13:19:26.396Z,11.20
2019-04-23T13:21:57.116Z,11.20
2019-04-23T13:24:41.879Z,11.20
2019-04-23T13:27:23.832Z,11.20
2019-04-23T13:30:08.707Z,11.20
2019-04-23T13:32:31.078Z,11.30
2019-04-23T13:35:11.070Z,11.30
2019-04-23T13:37:46.461Z,11.30
2019-04-23T13:40:09.378Z,11.30
2019-04-23T13:45:33.789Z,11.30
2019-04-23T13:47:53.254Z,11.30
2019-04-23T13:50:37.408Z,11.40
2019-04-23T13:55:32.456Z,11.40
2019-04-23T13:58:21.540Z,11.50
2019-04-23T14:00:52.295Z,11.40
2019-04-23T14:03:25.723Z,11.50
2019-04-23T14:06:09.064Z,11.40
2019-04-23T14:11:10.801Z,11.40
2019-04-23T14:13:52.025Z,11.40
2019-04-23T14:16:29.826Z,11.40
2019-04-23T14:18:58.512Z,11.50
2019-04-23T14:26:34.003Z,11.70
2019-04-23T14:29:04.278Z,11.80
2019-04-23T14:31:42.931Z,11.90
2019-04-23T14:34:17.733Z,12.00
2019-04-23T14:37:02.911Z,12.10
2019-04-23T14:39:32.150Z,12.10
2019-04-23T14:42:10.232Z,12.20
2019-04-23T14:44:44.441Z,12.30
2019-04-23T14:47:18.388Z,12.40
2019-04-23T14:49:59.296Z,12.40
2019-04-23T14:52:33.473Z,12.50
2019-04-23T14:57:44.745Z,12.60
2019-04-23T15:00:21.042Z,12.80
2019-04-23T15:02:51.877Z,12.90
2019-04-23T15:05:25.789Z,13.10
2019-04-23T15:07:51.248Z,13.50
2019-04-23T15:10:32.591Z,13.40
2019-04-23T15:13:12.186Z,13.50
2019-04-23T15:15:48.668Z,13.70
2019-04-23T15:18:35.245Z,13.80
2019-04-23T15:21:28.341Z,14.00
2019-04-23T15:28:29.035Z,14.50
2019-04-23T15:34:00.917Z,14.70
2019-04-23T15:36:41.246Z,14.80
2019-04-23T15:39:12.310Z,15.00
2019-04-23T15:41:55.899Z,15.10
2019-04-23T15:47:00.740Z,15.40
2019-04-23T15:49:23.477Z,15.60
2019-04-23T15:51:57.932Z,15.60
2019-04-23T15:54:37.580Z,15.70
2019-04-23T15:57:12.134Z,15.80
2019-04-23T16:01:43.850Z,16.60
2019-04-23T16:04:19.678Z,16.60
2019-04-23T16:06:51.883Z,16.80
2019-04-23T16:09:54.126Z,17.30
2019-04-23T16:12:28.103Z,17.70
2019-04-23T16:15:02.398Z,18.20
2019-04-23T16:17:37.282Z,18.30
2019-04-23T16:20:17.183Z,18.60
2019-04-23T16:22:39.364Z,18.90
2019-04-23T16:27:49.081Z,19.20
2019-04-23T16:30:27.335Z,19.40
2019-04-23T16:33:08.845Z,19.60
2019-04-23T16:38:34.193Z,20.00
2019-04-23T16:40:58.902Z,20.20
2019-04-23T16:43:30.979Z,20.40
2019-04-23T16:46:13.094Z,20.50
2019-04-23T16:48:52.916Z,20.70
2019-04-23T16:53:44.502Z,21.30
2019-04-23T16:56:25.903Z,21.60
2019-04-23T17:01:30.339Z,21.90
2019-04-23T17:04:13.565Z,22.10
2019-04-23T17:06:36.351Z,22.30
2019-04-23T17:09:38.856Z,22.50
2019-04-23T17:14:21.574Z,22.80
2019-04-23T17:16:49.641Z,23.10
2019-04-23T17:19:29.474Z,23.30
2019-04-23T17:22:03.845Z,23.50
2019-04-23T17:24:46.144Z,23.70
2019-04-23T17:27:16.817Z,23.90
2019-04-23T17:29:48.917Z,24.10
2019-04-23T17:32:39.183Z,24.30
2019-04-23T17:35:15.380Z,24.40
2019-04-23T17:37:40.992Z,24.70
2019-04-23T17:40:17.720Z,25.00
2019-04-23T17:42:45.642Z,25.10
2019-04-23T17:53:25.483Z,25.90
2019-04-23T17:56:11.770Z,25.80
2019-04-23T17:58:34.227Z,26.30
2019-04-23T18:01:17.002Z,26.20
2019-04-23T18:03:49.550Z,26.10
2019-04-23T18:06:28.299Z,26.20
2019-04-23T18:11:25.042Z,26.70
2019-04-23T18:16:42.900Z,26.90
2019-04-23T18:22:10.342Z,27.60
2019-04-23T18:27:18.108Z,27.20
2019-04-23T18:29:43.831Z,27.20
2019-04-23T18:32:19.835Z,27.20
2019-04-23T18:35:08.720Z,27.80
2019-04-23T18:37:24.550Z,28.10
2019-04-23T18:39:54.596Z,28.50
2019-04-23T18:45:03.548Z,28.40
2019-04-23T18:48:10.201Z,28.80
2019-04-23T18:50:19.527Z,29.00
2019-04-23T18:55:24.492Z,29.20
2019-04-23T18:57:57.288Z,28.90
2019-04-23T19:00:37.062Z,29.50
2019-04-23T19:03:19.752Z,30.10
2019-04-23T19:06:10.585Z,30.10
2019-04-23T19:11:39.598Z,31.00
2019-04-23T19:14:05.723Z,31.40
2019-04-23T19:16:41.539Z,31.70
2019-04-23T19:19:10.941Z,33.30
2019-04-23T19:22:07.012Z,33.90
2019-04-23T19:24:23.847Z,35.70
2019-04-23T19:29:31.821Z,38.30
2019-04-23T19:32:20.884Z,39.60
2019-04-23T19:37:10.847Z,39.60
2019-04-23T19:47:37.846Z,39.20
2019-04-23T19:50:02.063Z,39.50
2019-04-23T19:52:55.027Z,40.30
2019-04-23T19:55:07.857Z,40.10
2019-04-23T19:57:49.332Z,40.60
2019-04-23T20:00:17.274Z,41.60
2019-04-23T20:03:12.598Z,40.80
2019-04-23T20:05:31.855Z,41.60
2019-04-23T20:08:13.069Z,40.90
2019-04-23T20:10:39.745Z,42.10
2019-04-23T20:13:08.133Z,42.10
2019-04-23T20:15:55.140Z,41.00
2019-04-23T20:18:29.427Z,41.40
2019-04-23T20:20:54.254Z,41.10
2019-04-23T20:23:51.025Z,40.70
2019-04-23T20:29:07.019Z,41.80
2019-04-23T20:32:28.952Z,42.90
2019-04-23T20:34:19.633Z,43.50
2019-04-23T20:49:42.779Z,44.20
2019-04-23T20:52:06.975Z,44.10
2019-04-23T21:00:03.562Z,43.10
2019-04-23T21:03:10.031Z,45.10
2019-04-23T21:05:16.043Z,45.50
2019-04-23T21:15:35.854Z,45.10
2019-04-23T21:18:17.103Z,44.90
2019-04-23T21:23:11.238Z,46.10
2019-04-23T21:25:47.494Z,47.20
2019-04-23T21:33:50.675Z,48.00
2019-04-23T21:36:38.795Z,47.40
2019-04-23T21:39:08.723Z,47.30
2019-04-23T22:08:27.010Z,49.10
2019-04-23T22:11:27.785Z,48.40
2019-04-23T22:18:58.765Z,47.50
2019-04-23T22:21:27.856Z,48.60
2019-04-23T22:26:28.970Z,47.80
2019-04-23T22:31:40.308Z,44.90
2019-04-23T22:34:22.216Z,43.50
2019-04-23T22:36:49.802Z,45.70
2019-04-23T22:39:16.484Z,45.60
2019-04-23T22:42:08.814Z,45.60
2019-04-23T22:44:51.609Z,46.50
2019-04-23T22:47:04.328Z,47.80
2019-04-23T22:49:41.705Z,46.50
2019-04-23T22:52:10.758Z,47.30
2019-04-23T22:54:49.527Z,45.80
2019-04-23T22:57:37.148Z,46.40
2019-04-23T23:02:44.306Z,47.50
2019-04-23T23:10:20.025Z,44.30
2019-04-23T23:13:04.167Z,42.40
2019-04-23T23:15:36.099Z,43.80
2019-04-23T23:25:51.438Z,45.20
2019-04-23T23:31:04.075Z,43.80
2019-04-23T23:33:30.586Z,43.80
2019-04-23T23:36:06.973Z,44.30
2019-04-23T23:39:00.774Z,44.90
2019-04-23T23:44:08.182Z,44.00
2019-04-23T23:48:56.985Z,43.10
2019-04-23T23:51:29.105Z,41.10
2019-04-23T23:54:09.742Z,43.20
2019-04-23T23:56:53.312Z,42.60
2019-04-23T23:59:10.392Z,41.60
